sensor_id;sensor_type;location;lat;lon;timestamp;P1;durP1;ratioP1;P2;durP2;ratioP2
63110;SDS011;49201;53.426;10.300;2022-09-09T00:02:23;74.27;;;36.30;;
63110;SDS011;49201;53.426;10.300;2022-09-09T00:07:25;73.47;;;37.60;;
63110;SDS011;49201;53.426;10.300;2022-09-09T00:18:45;113.17;;;35.17;;
63110;SDS011;49201;53.426;10.300;2022-09-09T00:21:14;67.20;;;35.57;;
63110;SDS011;49201;53.426;10.300;2022-09-09T00:23:44;62.93;;;35.93;;
63110;SDS011;49201;53.426;10.300;2022-09-09T00:31:36;78.97;;;36.23;;
63110;SDS011;49201;53.426;10.300;2022-09-09T00:34:16;68.23;;;37.20;;
63110;SDS011;49201;53.426;10.300;2022-09-09T00:36:47;70.30;;;34.27;;
63110;SDS011;49201;53.426;10.300;2022-09-09T00:42:22;64.13;;;31.10;;
63110;SDS011;49201;53.426;10.300;2022-09-09T00:47:28;53.70;;;30.33;;
63110;SDS011;49201;53.426;10.300;2022-09-09T00:52:45;60.43;;;32.10;;
63110;SDS011;49201;53.426;10.300;2022-09-09T00:55:41;58.63;;;30.80;;
63110;SDS011;49201;53.426;10.300;2022-09-09T00:58:27;52.20;;;30.33;;
63110;SDS011;49201;53.426;10.300;2022-09-09T01:01:11;47.00;;;30.17;;
63110;SDS011;49201;53.426;10.300;2022-09-09T01:03:40;47.90;;;27.57;;
63110;SDS011;49201;53.426;10.300;2022-09-09T01:11:51;50.60;;;28.77;;
63110;SDS011;49201;53.426;10.300;2022-09-09T01:14:38;50.90;;;28.53;;
63110;SDS011;49201;53.426;10.300;2022-09-09T01:17:11;55.07;;;28.30;;
63110;SDS011;49201;53.426;10.300;2022-09-09T01:28:21;48.03;;;25.37;;
63110;SDS011;49201;53.426;10.300;2022-09-09T01:30:52;61.73;;;27.93;;
63110;SDS011;49201;53.426;10.300;2022-09-09T01:33:21;84.63;;;27.67;;
63110;SDS011;49201;53.426;10.300;2022-09-09T01:38:22;46.17;;;26.17;;
63110;SDS011;49201;53.426;10.300;2022-09-09T01:40:51;50.33;;;27.63;;
63110;SDS011;49201;53.426;10.300;2022-09-09T01:43:20;40.87;;;25.83;;
63110;SDS011;49201;53.426;10.300;2022-09-09T01:45:47;38.70;;;26.10;;
63110;SDS011;49201;53.426;10.300;2022-09-09T01:48:16;40.97;;;24.83;;
63110;SDS011;49201;53.426;10.300;2022-09-09T01:50:49;43.77;;;24.57;;
63110;SDS011;49201;53.426;10.300;2022-09-09T01:53:16;41.90;;;25.20;;
63110;SDS011;49201;53.426;10.300;2022-09-09T02:04:16;36.77;;;25.03;;
63110;SDS011;49201;53.426;10.300;2022-09-09T02:07:42;47.50;;;25.83;;
63110;SDS011;49201;53.426;10.300;2022-09-09T02:10:12;47.10;;;25.07;;
63110;SDS011;49201;53.426;10.300;2022-09-09T02:12:55;35.20;;;24.97;;
63110;SDS011;49201;53.426;10.300;2022-09-09T02:18:06;43.90;;;25.67;;
63110;SDS011;49201;53.426;10.300;2022-09-09T02:20:34;42.70;;;25.83;;
63110;SDS011;49201;53.426;10.300;2022-09-09T02:23:03;37.50;;;25.30;;
63110;SDS011;49201;53.426;10.300;2022-09-09T02:25:30;35.67;;;25.27;;
63110;SDS011;49201;53.426;10.300;2022-09-09T02:28:06;37.87;;;24.33;;
63110;SDS011;49201;53.426;10.300;2022-09-09T02:30:34;30.90;;;23.67;;
63110;SDS011;49201;53.426;10.300;2022-09-09T02:33:03;31.23;;;23.33;;
63110;SDS011;49201;53.426;10.300;2022-09-09T02:35:47;37.07;;;22.27;;
63110;SDS011;49201;53.426;10.300;2022-09-09T02:38:17;32.63;;;22.23;;
63110;SDS011;49201;53.426;10.300;2022-09-09T02:41:15;34.13;;;19.97;;
63110;SDS011;49201;53.426;10.300;2022-09-09T02:43:42;33.17;;;20.47;;
63110;SDS011;49201;53.426;10.300;2022-09-09T02:49:01;39.73;;;20.73;;
63110;SDS011;49201;53.426;10.300;2022-09-09T02:54:27;44.80;;;20.53;;
63110;SDS011;49201;53.426;10.300;2022-09-09T02:57:04;57.20;;;22.03;;
63110;SDS011;49201;53.426;10.300;2022-09-09T02:59:37;31.27;;;20.60;;
63110;SDS011;49201;53.426;10.300;2022-09-09T03:02:03;44.57;;;21.83;;
63110;SDS011;49201;53.426;10.300;2022-09-09T03:04:30;39.37;;;21.03;;
63110;SDS011;49201;53.426;10.300;2022-09-09T03:06:57;36.20;;;21.57;;
63110;SDS011;49201;53.426;10.300;2022-09-09T03:09:23;45.27;;;21.03;;
63110;SDS011;49201;53.426;10.300;2022-09-09T03:11:49;37.13;;;21.90;;
63110;SDS011;49201;53.426;10.300;2022-09-09T03:14:16;31.53;;;21.23;;
63110;SDS011;49201;53.426;10.300;2022-09-09T03:16:42;35.93;;;21.47;;
63110;SDS011;49201;53.426;10.300;2022-09-09T03:19:11;31.70;;;20.97;;
63110;SDS011;49201;53.426;10.300;2022-09-09T03:21:36;29.60;;;21.53;;
63110;SDS011;49201;53.426;10.300;2022-09-09T03:24:02;28.27;;;21.20;;
63110;SDS011;49201;53.426;10.300;2022-09-09T03:26:29;28.53;;;20.47;;
63110;SDS011;49201;53.426;10.300;2022-09-09T03:28:56;27.97;;;20.33;;
63110;SDS011;49201;53.426;10.300;2022-09-09T03:31:22;28.50;;;20.67;;
63110;SDS011;49201;53.426;10.300;2022-09-09T03:33:49;26.63;;;21.23;;
63110;SDS011;49201;53.426;10.300;2022-09-09T03:36:16;47.33;;;21.40;;
63110;SDS011;49201;53.426;10.300;2022-09-09T03:38:42;32.60;;;20.93;;
63110;SDS011;49201;53.426;10.300;2022-09-09T03:41:08;34.40;;;21.13;;
63110;SDS011;49201;53.426;10.300;2022-09-09T03:43:33;29.67;;;20.83;;
63110;SDS011;49201;53.426;10.300;2022-09-09T03:45:59;29.27;;;20.83;;
63110;SDS011;49201;53.426;10.300;2022-09-09T03:48:27;28.87;;;20.13;;
63110;SDS011;49201;53.426;10.300;2022-09-09T03:50:54;29.70;;;20.80;;
63110;SDS011;49201;53.426;10.300;2022-09-09T03:53:22;28.27;;;21.13;;
63110;SDS011;49201;53.426;10.300;2022-09-09T03:55:50;27.23;;;20.20;;
63110;SDS011;49201;53.426;10.300;2022-09-09T03:58:22;29.03;;;21.43;;
63110;SDS011;49201;53.426;10.300;2022-09-09T04:00:53;25.83;;;20.80;;
63110;SDS011;49201;53.426;10.300;2022-09-09T04:03:19;30.40;;;21.60;;
63110;SDS011;49201;53.426;10.300;2022-09-09T04:05:45;31.20;;;20.33;;
63110;SDS011;49201;53.426;10.300;2022-09-09T04:08:14;31.67;;;20.47;;
63110;SDS011;49201;53.426;10.300;2022-09-09T04:10:39;26.10;;;19.80;;
63110;SDS011;49201;53.426;10.300;2022-09-09T04:13:05;23.63;;;19.17;;
63110;SDS011;49201;53.426;10.300;2022-09-09T04:15:30;25.27;;;19.33;;
63110;SDS011;49201;53.426;10.300;2022-09-09T04:17:57;24.13;;;19.27;;
63110;SDS011;49201;53.426;10.300;2022-09-09T04:20:22;22.80;;;18.63;;
63110;SDS011;49201;53.426;10.300;2022-09-09T04:22:48;26.23;;;19.10;;
63110;SDS011;49201;53.426;10.300;2022-09-09T04:25:13;21.33;;;18.10;;
63110;SDS011;49201;53.426;10.300;2022-09-09T04:27:39;22.73;;;18.43;;
63110;SDS011;49201;53.426;10.300;2022-09-09T04:30:05;22.77;;;18.20;;
63110;SDS011;49201;53.426;10.300;2022-09-09T04:32:33;22.47;;;17.90;;
63110;SDS011;49201;53.426;10.300;2022-09-09T04:34:58;20.93;;;17.67;;
63110;SDS011;49201;53.426;10.300;2022-09-09T04:37:24;22.70;;;18.63;;
63110;SDS011;49201;53.426;10.300;2022-09-09T04:39:50;24.10;;;18.00;;
63110;SDS011;49201;53.426;10.300;2022-09-09T04:42:15;22.67;;;17.20;;
63110;SDS011;49201;53.426;10.300;2022-09-09T04:44:43;21.57;;;17.90;;
63110;SDS011;49201;53.426;10.300;2022-09-09T04:47:09;23.10;;;17.87;;
63110;SDS011;49201;53.426;10.300;2022-09-09T04:49:35;22.27;;;17.60;;
63110;SDS011;49201;53.426;10.300;2022-09-09T04:52:04;20.33;;;17.27;;
63110;SDS011;49201;53.426;10.300;2022-09-09T04:54:32;19.83;;;16.27;;
63110;SDS011;49201;53.426;10.300;2022-09-09T04:56:57;20.13;;;16.43;;
63110;SDS011;49201;53.426;10.300;2022-09-09T04:59:23;21.77;;;17.50;;
63110;SDS011;49201;53.426;10.300;2022-09-09T05:01:53;20.60;;;16.17;;
63110;SDS011;49201;53.426;10.300;2022-09-09T05:04:20;20.97;;;17.33;;
63110;SDS011;49201;53.426;10.300;2022-09-09T05:06:46;19.70;;;16.83;;
63110;SDS011;49201;53.426;10.300;2022-09-09T05:09:12;19.97;;;16.10;;
63110;SDS011;49201;53.426;10.300;2022-09-09T05:11:37;17.93;;;15.03;;
63110;SDS011;49201;53.426;10.300;2022-09-09T05:14:12;18.53;;;15.20;;
63110;SDS011;49201;53.426;10.300;2022-09-09T05:16:37;18.27;;;15.50;;
63110;SDS011;49201;53.426;10.300;2022-09-09T05:19:03;19.10;;;16.37;;
63110;SDS011;49201;53.426;10.300;2022-09-09T05:21:39;19.27;;;15.20;;
63110;SDS011;49201;53.426;10.300;2022-09-09T05:24:06;18.80;;;14.97;;
63110;SDS011;49201;53.426;10.300;2022-09-09T05:26:33;20.17;;;15.30;;
63110;SDS011;49201;53.426;10.300;2022-09-09T05:28:58;17.97;;;15.40;;
63110;SDS011;49201;53.426;10.300;2022-09-09T05:31:26;19.37;;;14.80;;
63110;SDS011;49201;53.426;10.300;2022-09-09T05:33:53;17.93;;;14.90;;
63110;SDS011;49201;53.426;10.300;2022-09-09T05:36:20;16.57;;;14.50;;
63110;SDS011;49201;53.426;10.300;2022-09-09T05:38:49;15.53;;;13.83;;
63110;SDS011;49201;53.426;10.300;2022-09-09T05:41:16;16.93;;;14.57;;
63110;SDS011;49201;53.426;10.300;2022-09-09T05:43:43;16.87;;;13.70;;
63110;SDS011;49201;53.426;10.300;2022-09-09T05:46:12;15.67;;;14.00;;
63110;SDS011;49201;53.426;10.300;2022-09-09T05:48:40;15.80;;;13.27;;
63110;SDS011;49201;53.426;10.300;2022-09-09T05:51:11;14.97;;;13.37;;
63110;SDS011;49201;53.426;10.300;2022-09-09T05:53:40;13.80;;;12.40;;
63110;SDS011;49201;53.426;10.300;2022-09-09T05:56:16;14.93;;;12.97;;
63110;SDS011;49201;53.426;10.300;2022-09-09T05:58:43;14.93;;;12.17;;
63110;SDS011;49201;53.426;10.300;2022-09-09T06:01:22;13.63;;;12.23;;
63110;SDS011;49201;53.426;10.300;2022-09-09T06:03:50;17.30;;;12.37;;
63110;SDS011;49201;53.426;10.300;2022-09-09T06:06:22;13.47;;;12.10;;
63110;SDS011;49201;53.426;10.300;2022-09-09T06:08:51;15.53;;;11.77;;
63110;SDS011;49201;53.426;10.300;2022-09-09T06:11:20;13.00;;;11.70;;
63110;SDS011;49201;53.426;10.300;2022-09-09T06:13:47;11.50;;;10.40;;
63110;SDS011;49201;53.426;10.300;2022-09-09T06:16:17;12.33;;;11.03;;
63110;SDS011;49201;53.426;10.300;2022-09-09T06:18:44;11.07;;;9.97;;
63110;SDS011;49201;53.426;10.300;2022-09-09T06:21:17;13.40;;;10.97;;
63110;SDS011;49201;53.426;10.300;2022-09-09T06:23:46;15.10;;;11.57;;
63110;SDS011;49201;53.426;10.300;2022-09-09T06:26:17;11.73;;;10.53;;
63110;SDS011;49201;53.426;10.300;2022-09-09T06:28:45;13.43;;;10.93;;
63110;SDS011;49201;53.426;10.300;2022-09-09T06:31:13;11.67;;;10.47;;
63110;SDS011;49201;53.426;10.300;2022-09-09T06:33:43;11.37;;;9.87;;
63110;SDS011;49201;53.426;10.300;2022-09-09T06:36:12;12.30;;;9.97;;
63110;SDS011;49201;53.426;10.300;2022-09-09T06:38:48;11.07;;;9.93;;
63110;SDS011;49201;53.426;10.300;2022-09-09T06:41:14;10.07;;;9.13;;
63110;SDS011;49201;53.426;10.300;2022-09-09T06:43:43;9.97;;;8.97;;
63110;SDS011;49201;53.426;10.300;2022-09-09T06:46:12;8.43;;;7.67;;
63110;SDS011;49201;53.426;10.300;2022-09-09T06:48:45;9.57;;;7.90;;
63110;SDS011;49201;53.426;10.300;2022-09-09T06:51:16;10.60;;;7.30;;
63110;SDS011;49201;53.426;10.300;2022-09-09T06:53:44;8.47;;;7.17;;
63110;SDS011;49201;53.426;10.300;2022-09-09T06:58:48;8.90;;;6.43;;
63110;SDS011;49201;53.426;10.300;2022-09-09T07:01:23;7.93;;;6.10;;
63110;SDS011;49201;53.426;10.300;2022-09-09T07:03:55;8.63;;;6.00;;
63110;SDS011;49201;53.426;10.300;2022-09-09T07:06:26;8.60;;;6.00;;
63110;SDS011;49201;53.426;10.300;2022-09-09T07:09:22;6.20;;;5.60;;
63110;SDS011;49201;53.426;10.300;2022-09-09T07:11:51;8.50;;;5.73;;
63110;SDS011;49201;53.426;10.300;2022-09-09T07:14:19;5.50;;;4.70;;
63110;SDS011;49201;53.426;10.300;2022-09-09T07:16:48;7.27;;;5.03;;
63110;SDS011;49201;53.426;10.300;2022-09-09T07:19:15;5.43;;;4.93;;
63110;SDS011;49201;53.426;10.300;2022-09-09T07:21:42;6.33;;;4.80;;
63110;SDS011;49201;53.426;10.300;2022-09-09T07:24:10;5.97;;;4.20;;
63110;SDS011;49201;53.426;10.300;2022-09-09T07:26:38;6.53;;;4.00;;
63110;SDS011;49201;53.426;10.300;2022-09-09T07:29:04;4.47;;;3.33;;
63110;SDS011;49201;53.426;10.300;2022-09-09T07:31:31;3.83;;;3.40;;
63110;SDS011;49201;53.426;10.300;2022-09-09T07:33:59;5.67;;;3.77;;
63110;SDS011;49201;53.426;10.300;2022-09-09T07:36:29;4.90;;;3.60;;
63110;SDS011;49201;53.426;10.300;2022-09-09T07:38:58;5.43;;;3.20;;
63110;SDS011;49201;53.426;10.300;2022-09-09T07:41:41;4.63;;;3.30;;
63110;SDS011;49201;53.426;10.300;2022-09-09T07:44:09;4.60;;;3.30;;
63110;SDS011;49201;53.426;10.300;2022-09-09T07:46:41;4.20;;;2.90;;
63110;SDS011;49201;53.426;10.300;2022-09-09T07:49:08;7.27;;;3.50;;
63110;SDS011;49201;53.426;10.300;2022-09-09T07:51:37;3.40;;;3.10;;
63110;SDS011;49201;53.426;10.300;2022-09-09T07:54:06;3.77;;;3.03;;
63110;SDS011;49201;53.426;10.300;2022-09-09T07:56:35;3.37;;;2.83;;
63110;SDS011;49201;53.426;10.300;2022-09-09T07:59:03;4.03;;;2.83;;
63110;SDS011;49201;53.426;10.300;2022-09-09T08:01:33;6.33;;;3.00;;
63110;SDS011;49201;53.426;10.300;2022-09-09T08:04:06;5.83;;;2.80;;
63110;SDS011;49201;53.426;10.300;2022-09-09T08:06:36;3.37;;;2.87;;
63110;SDS011;49201;53.426;10.300;2022-09-09T08:09:07;4.03;;;2.57;;
63110;SDS011;49201;53.426;10.300;2022-09-09T08:11:35;3.90;;;2.90;;
63110;SDS011;49201;53.426;10.300;2022-09-09T08:14:02;7.20;;;3.07;;
63110;SDS011;49201;53.426;10.300;2022-09-09T08:16:30;4.63;;;3.00;;
63110;SDS011;49201;53.426;10.300;2022-09-09T08:18:59;4.80;;;2.67;;
63110;SDS011;49201;53.426;10.300;2022-09-09T08:21:28;3.60;;;2.40;;
63110;SDS011;49201;53.426;10.300;2022-09-09T08:23:57;5.83;;;2.83;;
63110;SDS011;49201;53.426;10.300;2022-09-09T08:26:29;5.20;;;3.00;;
63110;SDS011;49201;53.426;10.300;2022-09-09T08:28:56;4.00;;;2.80;;
63110;SDS011;49201;53.426;10.300;2022-09-09T08:31:29;2.97;;;2.67;;
63110;SDS011;49201;53.426;10.300;2022-09-09T08:33:56;5.53;;;2.57;;
63110;SDS011;49201;53.426;10.300;2022-09-09T08:36:26;5.43;;;2.83;;
63110;SDS011;49201;53.426;10.300;2022-09-09T08:38:54;3.10;;;2.63;;
63110;SDS011;49201;53.426;10.300;2022-09-09T08:44:18;5.97;;;2.73;;
63110;SDS011;49201;53.426;10.300;2022-09-09T08:47:01;4.80;;;3.07;;
63110;SDS011;49201;53.426;10.300;2022-09-09T08:52:04;3.53;;;2.30;;
63110;SDS011;49201;53.426;10.300;2022-09-09T08:54:39;4.40;;;2.60;;
63110;SDS011;49201;53.426;10.300;2022-09-09T08:57:05;3.90;;;2.67;;
63110;SDS011;49201;53.426;10.300;2022-09-09T08:59:39;3.87;;;2.40;;
63110;SDS011;49201;53.426;10.300;2022-09-09T09:07:28;4.97;;;2.30;;
63110;SDS011;49201;53.426;10.300;2022-09-09T09:10:08;2.80;;;2.37;;
63110;SDS011;49201;53.426;10.300;2022-09-09T09:12:57;4.80;;;2.23;;
63110;SDS011;49201;53.426;10.300;2022-09-09T09:15:24;3.33;;;2.45;;
63110;SDS011;49201;53.426;10.300;2022-09-09T09:17:53;3.03;;;2.17;;
63110;SDS011;49201;53.426;10.300;2022-09-09T09:20:32;2.05;;;1.80;;
63110;SDS011;49201;53.426;10.300;2022-09-09T09:23:21;3.00;;;1.77;;
63110;SDS011;49201;53.426;10.300;2022-09-09T09:25:49;2.88;;;1.90;;
63110;SDS011;49201;53.426;10.300;2022-09-09T09:28:21;4.78;;;2.10;;
63110;SDS011;49201;53.426;10.300;2022-09-09T09:30:54;5.20;;;2.60;;
63110;SDS011;49201;53.426;10.300;2022-09-09T09:36:17;6.43;;;2.47;;
63110;SDS011;49201;53.426;10.300;2022-09-09T09:38:51;4.68;;;2.30;;
63110;SDS011;49201;53.426;10.300;2022-09-09T09:43:58;2.58;;;1.95;;
63110;SDS011;49201;53.426;10.300;2022-09-09T09:46:24;2.28;;;2.05;;
63110;SDS011;49201;53.426;10.300;2022-09-09T09:49:04;3.30;;;1.98;;
63110;SDS011;49201;53.426;10.300;2022-09-09T09:51:34;3.15;;;1.98;;
63110;SDS011;49201;53.426;10.300;2022-09-09T09:54:07;3.42;;;1.98;;
63110;SDS011;49201;53.426;10.300;2022-09-09T09:56:35;3.00;;;1.75;;
63110;SDS011;49201;53.426;10.300;2022-09-09T09:59:03;2.42;;;1.83;;
63110;SDS011;49201;53.426;10.300;2022-09-09T10:01:34;4.05;;;1.92;;
63110;SDS011;49201;53.426;10.300;2022-09-09T10:04:21;3.22;;;1.95;;
63110;SDS011;49201;53.426;10.300;2022-09-09T10:06:50;4.32;;;1.80;;
63110;SDS011;49201;53.426;10.300;2022-09-09T10:09:23;2.88;;;2.17;;
63110;SDS011;49201;53.426;10.300;2022-09-09T10:20:15;4.28;;;1.80;;
63110;SDS011;49201;53.426;10.300;2022-09-09T10:22:45;3.50;;;2.10;;
63110;SDS011;49201;53.426;10.300;2022-09-09T10:27:55;2.92;;;1.70;;
63110;SDS011;49201;53.426;10.300;2022-09-09T10:30:24;4.18;;;2.03;;
63110;SDS011;49201;53.426;10.300;2022-09-09T10:35:27;2.22;;;1.40;;
63110;SDS011;49201;53.426;10.300;2022-09-09T10:41:19;2.85;;;1.55;;
63110;SDS011;49201;53.426;10.300;2022-09-09T10:47:14;3.95;;;2.28;;
63110;SDS011;49201;53.426;10.300;2022-09-09T10:57:46;4.68;;;1.95;;
63110;SDS011;49201;53.426;10.300;2022-09-09T11:00:19;4.47;;;1.80;;
63110;SDS011;49201;53.426;10.300;2022-09-09T11:03:04;3.38;;;1.73;;
63110;SDS011;49201;53.426;10.300;2022-09-09T11:05:41;4.68;;;1.90;;
63110;SDS011;49201;53.426;10.300;2022-09-09T11:08:20;3.88;;;1.75;;
63110;SDS011;49201;53.426;10.300;2022-09-09T11:11:03;3.20;;;1.55;;
63110;SDS011;49201;53.426;10.300;2022-09-09T11:16:44;3.42;;;1.55;;
63110;SDS011;49201;53.426;10.300;2022-09-09T11:19:13;3.28;;;1.30;;
63110;SDS011;49201;53.426;10.300;2022-09-09T11:21:48;2.03;;;1.30;;
63110;SDS011;49201;53.426;10.300;2022-09-09T11:24:23;3.35;;;1.60;;
63110;SDS011;49201;53.426;10.300;2022-09-09T11:27:15;3.78;;;1.63;;
63110;SDS011;49201;53.426;10.300;2022-09-09T11:38:10;3.28;;;1.50;;
63110;SDS011;49201;53.426;10.300;2022-09-09T11:40:40;3.33;;;1.50;;
63110;SDS011;49201;53.426;10.300;2022-09-09T11:43:17;4.40;;;1.85;;
63110;SDS011;49201;53.426;10.300;2022-09-09T11:45:59;5.33;;;1.80;;
63110;SDS011;49201;53.426;10.300;2022-09-09T11:48:42;2.63;;;1.87;;
63110;SDS011;49201;53.426;10.300;2022-09-09T11:56:23;5.27;;;2.20;;
63110;SDS011;49201;53.426;10.300;2022-09-09T12:07:20;4.80;;;2.00;;
63110;SDS011;49201;53.426;10.300;2022-09-09T12:12:45;3.33;;;1.60;;
63110;SDS011;49201;53.426;10.300;2022-09-09T12:17:41;2.73;;;1.70;;
63110;SDS011;49201;53.426;10.300;2022-09-09T12:20:13;5.03;;;2.00;;
63110;SDS011;49201;53.426;10.300;2022-09-09T12:28:17;2.40;;;2.20;;
63110;SDS011;49201;53.426;10.300;2022-09-09T12:33:18;3.97;;;2.43;;
63110;SDS011;49201;53.426;10.300;2022-09-09T12:35:45;5.03;;;2.90;;
63110;SDS011;49201;53.426;10.300;2022-09-09T12:38:24;5.40;;;2.40;;
63110;SDS011;49201;53.426;10.300;2022-09-09T12:40:57;3.03;;;1.73;;
63110;SDS011;49201;53.426;10.300;2022-09-09T12:43:24;4.97;;;2.20;;
63110;SDS011;49201;53.426;10.300;2022-09-09T12:45:53;3.80;;;2.10;;
63110;SDS011;49201;53.426;10.300;2022-09-09T12:51:06;2.22;;;1.48;;
63110;SDS011;49201;53.426;10.300;2022-09-09T12:53:41;1.92;;;1.27;;
63110;SDS011;49201;53.426;10.300;2022-09-09T12:56:08;1.95;;;1.40;;
63110;SDS011;49201;53.426;10.300;2022-09-09T12:58:44;3.58;;;1.42;;
63110;SDS011;49201;53.426;10.300;2022-09-09T13:01:18;2.45;;;1.33;;
63110;SDS011;49201;53.426;10.300;2022-09-09T13:03:47;1.92;;;1.10;;
63110;SDS011;49201;53.426;10.300;2022-09-09T13:06:16;2.20;;;1.10;;
63110;SDS011;49201;53.426;10.300;2022-09-09T13:08:46;2.03;;;1.20;;
63110;SDS011;49201;53.426;10.300;2022-09-09T13:11:13;3.67;;;1.20;;
63110;SDS011;49201;53.426;10.300;2022-09-09T13:13:43;2.57;;;1.10;;
63110;SDS011;49201;53.426;10.300;2022-09-09T13:16:25;1.83;;;1.07;;
63110;SDS011;49201;53.426;10.300;2022-09-09T13:18:56;2.93;;;1.00;;
63110;SDS011;49201;53.426;10.300;2022-09-09T13:21:30;2.10;;;1.17;;
63110;SDS011;49201;53.426;10.300;2022-09-09T13:24:00;4.43;;;1.60;;
63110;SDS011;49201;53.426;10.300;2022-09-09T13:26:28;2.40;;;1.50;;
63110;SDS011;49201;53.426;10.300;2022-09-09T13:28:55;1.50;;;0.97;;
63110;SDS011;49201;53.426;10.300;2022-09-09T13:31:39;1.57;;;1.30;;
63110;SDS011;49201;53.426;10.300;2022-09-09T13:37:09;3.13;;;1.50;;
63110;SDS011;49201;53.426;10.300;2022-09-09T13:39:50;5.03;;;1.77;;
63110;SDS011;49201;53.426;10.300;2022-09-09T13:42:26;3.43;;;1.80;;
63110;SDS011;49201;53.426;10.300;2022-09-09T13:44:57;2.90;;;1.77;;
63110;SDS011;49201;53.426;10.300;2022-09-09T13:47:32;3.37;;;1.83;;
63110;SDS011;49201;53.426;10.300;2022-09-09T13:50:19;3.03;;;2.03;;
63110;SDS011;49201;53.426;10.300;2022-09-09T13:52:46;3.07;;;2.20;;
63110;SDS011;49201;53.426;10.300;2022-09-09T13:55:14;4.23;;;2.30;;
63110;SDS011;49201;53.426;10.300;2022-09-09T13:57:39;7.20;;;2.30;;
63110;SDS011;49201;53.426;10.300;2022-09-09T14:00:37;3.43;;;2.20;;
63110;SDS011;49201;53.426;10.300;2022-09-09T14:03:03;4.63;;;1.87;;
63110;SDS011;49201;53.426;10.300;2022-09-09T14:05:30;3.57;;;2.40;;
63110;SDS011;49201;53.426;10.300;2022-09-09T14:07:57;3.10;;;2.37;;
63110;SDS011;49201;53.426;10.300;2022-09-09T14:10:23;5.30;;;2.73;;
63110;SDS011;49201;53.426;10.300;2022-09-09T14:12:48;5.70;;;3.00;;
63110;SDS011;49201;53.426;10.300;2022-09-09T14:15:14;6.43;;;2.97;;
63110;SDS011;49201;53.426;10.300;2022-09-09T14:17:40;4.33;;;2.63;;
63110;SDS011;49201;53.426;10.300;2022-09-09T14:20:06;6.50;;;3.63;;
63110;SDS011;49201;53.426;10.300;2022-09-09T14:22:34;3.73;;;2.20;;
63110;SDS011;49201;53.426;10.300;2022-09-09T14:25:01;3.37;;;1.50;;
63110;SDS011;49201;53.426;10.300;2022-09-09T14:27:27;3.73;;;1.27;;
63110;SDS011;49201;53.426;10.300;2022-09-09T14:29:53;3.00;;;1.20;;
63110;SDS011;49201;53.426;10.300;2022-09-09T14:32:19;1.80;;;1.00;;
63110;SDS011;49201;53.426;10.300;2022-09-09T14:34:46;4.73;;;1.40;;
63110;SDS011;49201;53.426;10.300;2022-09-09T14:37:14;2.63;;;1.13;;
63110;SDS011;49201;53.426;10.300;2022-09-09T14:39:41;3.00;;;1.30;;
63110;SDS011;49201;53.426;10.300;2022-09-09T14:42:09;2.67;;;1.60;;
63110;SDS011;49201;53.426;10.300;2022-09-09T14:44:36;2.60;;;1.17;;
63110;SDS011;49201;53.426;10.300;2022-09-09T14:47:03;3.80;;;1.40;;
63110;SDS011;49201;53.426;10.300;2022-09-09T14:49:30;3.37;;;1.50;;
63110;SDS011;49201;53.426;10.300;2022-09-09T14:51:56;3.43;;;1.97;;
63110;SDS011;49201;53.426;10.300;2022-09-09T14:54:21;3.50;;;1.93;;
63110;SDS011;49201;53.426;10.300;2022-09-09T14:56:48;4.13;;;1.90;;
63110;SDS011;49201;53.426;10.300;2022-09-09T14:59:13;4.00;;;2.20;;
63110;SDS011;49201;53.426;10.300;2022-09-09T15:01:39;3.53;;;1.90;;
63110;SDS011;49201;53.426;10.300;2022-09-09T15:04:05;3.67;;;2.40;;
63110;SDS011;49201;53.426;10.300;2022-09-09T15:06:32;6.20;;;2.17;;
63110;SDS011;49201;53.426;10.300;2022-09-09T15:08:59;5.17;;;2.30;;
63110;SDS011;49201;53.426;10.300;2022-09-09T15:11:26;4.00;;;2.30;;
63110;SDS011;49201;53.426;10.300;2022-09-09T15:13:53;5.07;;;2.13;;
63110;SDS011;49201;53.426;10.300;2022-09-09T15:16:20;4.70;;;2.07;;
63110;SDS011;49201;53.426;10.300;2022-09-09T15:18:46;5.37;;;2.30;;
63110;SDS011;49201;53.426;10.300;2022-09-09T15:21:17;4.53;;;2.23;;
63110;SDS011;49201;53.426;10.300;2022-09-09T15:23:44;6.30;;;2.40;;
63110;SDS011;49201;53.426;10.300;2022-09-09T15:26:10;5.83;;;2.67;;
63110;SDS011;49201;53.426;10.300;2022-09-09T15:28:37;6.70;;;2.93;;
63110;SDS011;49201;53.426;10.300;2022-09-09T15:31:08;3.87;;;2.27;;
63110;SDS011;49201;53.426;10.300;2022-09-09T15:33:36;6.97;;;2.70;;
63110;SDS011;49201;53.426;10.300;2022-09-09T15:36:21;11.07;;;2.80;;
63110;SDS011;49201;53.426;10.300;2022-09-09T15:38:49;4.23;;;2.23;;
63110;SDS011;49201;53.426;10.300;2022-09-09T15:41:16;4.47;;;2.20;;
63110;SDS011;49201;53.426;10.300;2022-09-09T15:43:46;3.77;;;2.50;;
63110;SDS011;49201;53.426;10.300;2022-09-09T15:48:41;4.93;;;2.50;;
63110;SDS011;49201;53.426;10.300;2022-09-09T15:51:07;5.37;;;2.50;;
63110;SDS011;49201;53.426;10.300;2022-09-09T15:53:34;4.83;;;2.87;;
63110;SDS011;49201;53.426;10.300;2022-09-09T15:55:59;4.73;;;2.57;;
63110;SDS011;49201;53.426;10.300;2022-09-09T15:58:25;4.10;;;2.60;;
63110;SDS011;49201;53.426;10.300;2022-09-09T16:00:55;4.57;;;2.10;;
63110;SDS011;49201;53.426;10.300;2022-09-09T16:03:30;6.80;;;2.10;;
63110;SDS011;49201;53.426;10.300;2022-09-09T16:05:59;3.53;;;2.20;;
63110;SDS011;49201;53.426;10.300;2022-09-09T16:08:25;4.17;;;2.33;;
63110;SDS011;49201;53.426;10.300;2022-09-09T16:10:56;3.30;;;2.10;;
63110;SDS011;49201;53.426;10.300;2022-09-09T16:13:21;5.57;;;2.07;;
63110;SDS011;49201;53.426;10.300;2022-09-09T16:15:53;4.83;;;2.17;;
63110;SDS011;49201;53.426;10.300;2022-09-09T16:18:19;4.47;;;2.20;;
63110;SDS011;49201;53.426;10.300;2022-09-09T16:20:53;4.53;;;2.47;;
63110;SDS011;49201;53.426;10.300;2022-09-09T16:23:21;3.10;;;2.20;;
63110;SDS011;49201;53.426;10.300;2022-09-09T16:25:55;3.77;;;2.10;;
63110;SDS011;49201;53.426;10.300;2022-09-09T16:28:21;4.27;;;2.30;;
63110;SDS011;49201;53.426;10.300;2022-09-09T16:30:47;4.67;;;2.50;;
63110;SDS011;49201;53.426;10.300;2022-09-09T16:33:13;2.97;;;2.03;;
63110;SDS011;49201;53.426;10.300;2022-09-09T16:35:40;3.77;;;2.20;;
63110;SDS011;49201;53.426;10.300;2022-09-09T16:38:06;3.93;;;2.33;;
63110;SDS011;49201;53.426;10.300;2022-09-09T16:40:34;4.27;;;2.70;;
63110;SDS011;49201;53.426;10.300;2022-09-09T16:43:01;4.30;;;2.60;;
63110;SDS011;49201;53.426;10.300;2022-09-09T16:45:27;3.27;;;2.97;;
63110;SDS011;49201;53.426;10.300;2022-09-09T16:47:53;4.67;;;3.27;;
63110;SDS011;49201;53.426;10.300;2022-09-09T16:50:18;7.07;;;3.40;;
63110;SDS011;49201;53.426;10.300;2022-09-09T16:52:44;6.67;;;4.07;;
63110;SDS011;49201;53.426;10.300;2022-09-09T16:55:10;5.60;;;3.40;;
63110;SDS011;49201;53.426;10.300;2022-09-09T16:57:35;7.50;;;3.90;;
63110;SDS011;49201;53.426;10.300;2022-09-09T17:00:01;4.87;;;3.40;;
63110;SDS011;49201;53.426;10.300;2022-09-09T17:02:29;7.47;;;4.03;;
63110;SDS011;49201;53.426;10.300;2022-09-09T17:04:55;4.00;;;3.50;;
63110;SDS011;49201;53.426;10.300;2022-09-09T17:07:20;5.03;;;4.10;;
63110;SDS011;49201;53.426;10.300;2022-09-09T17:09:47;5.37;;;4.10;;
63110;SDS011;49201;53.426;10.300;2022-09-09T17:12:13;7.27;;;4.10;;
63110;SDS011;49201;53.426;10.300;2022-09-09T17:14:39;4.97;;;3.97;;